Airport View

Enter AWOS ICAO identifier for current METAR.

ex. KFNL

K5A6 051335Z AUTO 04005KT 10SM CLR 22/19 A3005 RMK AO2 T02210189

5 Aug 2020 14:09

Frequency: 120.175

Phone: 662-283-2172

Other Area AWOS: KGWO - KSTF - KNMM - KRNV

TAF KGWO 051120Z 0512/0612 02004KT P6SM SCT060 SCT100